createdAt,value
2022-09-14T00:00:12.584Z,20.00
2022-09-14T00:00:45.342Z,20.00
2022-09-14T00:01:25.771Z,20.00
2022-09-14T00:01:59.435Z,20.00
2022-09-14T00:02:32.520Z,20.00
2022-09-14T00:03:04.563Z,20.00
2022-09-14T00:03:36.497Z,20.00
2022-09-14T00:04:12.828Z,20.00
2022-09-14T00:04:44.612Z,20.00
2022-09-14T00:05:17.995Z,20.00
2022-09-14T00:05:50.099Z,20.00
2022-09-14T00:06:23.194Z,20.00
2022-09-14T00:06:55.006Z,20.00
2022-09-14T00:07:26.788Z,20.00
2022-09-14T00:07:59.516Z,20.00
2022-09-14T00:08:31.321Z,20.00
2022-09-14T00:09:07.202Z,20.00
2022-09-14T00:09:38.980Z,20.00
2022-09-14T00:10:10.801Z,20.00
2022-09-14T00:10:44.669Z,20.10
2022-09-14T00:11:16.485Z,20.10
2022-09-14T00:11:49.025Z,20.10
2022-09-14T00:12:21.796Z,20.00
2022-09-14T00:12:53.632Z,20.00
2022-09-14T00:13:25.416Z,20.00
2022-09-14T00:13:58.356Z,20.10
2022-09-14T00:14:31.125Z,20.00
2022-09-14T00:15:03.843Z,20.00
2022-09-14T00:15:37.250Z,20.00
2022-09-14T00:16:15.164Z,20.00
2022-09-14T00:16:47.935Z,20.00
2022-09-14T00:17:19.874Z,20.00
2022-09-14T00:17:52.634Z,20.00
2022-09-14T00:18:24.777Z,20.00
2022-09-14T00:19:00.208Z,20.00
2022-09-14T00:19:32.999Z,20.00
2022-09-14T00:20:07.114Z,20.00
2022-09-14T00:20:40.348Z,20.00
2022-09-14T00:21:14.639Z,20.00
2022-09-14T00:21:52.242Z,20.00
2022-09-14T00:22:24.020Z,20.00
2022-09-14T00:22:56.853Z,20.00
2022-09-14T00:23:29.157Z,20.00
2022-09-14T00:24:01.117Z,20.00
2022-09-14T00:24:34.942Z,20.00
2022-09-14T00:25:07.705Z,20.00
2022-09-14T00:25:39.498Z,20.00
2022-09-14T00:26:14.096Z,20.00
2022-09-14T00:26:46.812Z,20.00
2022-09-14T00:27:18.551Z,20.00
2022-09-14T00:27:50.348Z,20.00
2022-09-14T00:28:22.385Z,20.00
2022-09-14T00:28:57.842Z,20.00
2022-09-14T00:29:30.159Z,20.10
2022-09-14T00:30:01.977Z,20.10
2022-09-14T00:30:34.819Z,20.10
2022-09-14T00:31:07.521Z,20.10
2022-09-14T00:31:40.001Z,20.10
2022-09-14T00:32:12.866Z,20.10
2022-09-14T00:32:44.717Z,20.10
2022-09-14T00:33:16.511Z,20.10
2022-09-14T00:33:50.700Z,20.10
2022-09-14T00:34:22.661Z,20.20
2022-09-14T00:34:54.595Z,20.20
2022-09-14T00:35:27.419Z,20.20
2022-09-14T00:36:06.201Z,20.20
2022-09-14T00:36:40.235Z,20.20
2022-09-14T00:37:13.144Z,20.20
2022-09-14T00:37:45.171Z,20.10
2022-09-14T00:38:16.989Z,20.20
2022-09-14T00:38:50.513Z,20.10
2022-09-14T00:39:23.669Z,20.20
2022-09-14T00:39:55.512Z,20.10
2022-09-14T00:40:28.343Z,20.20
2022-09-14T00:41:01.170Z,20.10
2022-09-14T00:41:42.792Z,20.20
2022-09-14T00:42:19.353Z,20.10
2022-09-14T00:42:51.470Z,20.20
2022-09-14T00:43:23.349Z,20.10
2022-09-14T00:43:58.154Z,20.10
2022-09-14T00:45:00.645Z,20.10
2022-09-14T00:45:32.492Z,20.10
2022-09-14T00:46:05.449Z,20.10
2022-09-14T00:46:39.141Z,20.10
2022-09-14T00:47:13.727Z,20.10
2022-09-14T00:47:49.194Z,20.10
2022-09-14T00:48:25.033Z,20.10
2022-09-14T00:48:59.424Z,20.10
2022-09-14T00:49:35.037Z,20.20
2022-09-14T00:50:07.945Z,20.10
2022-09-14T00:50:39.797Z,20.10
2022-09-14T00:51:14.712Z,20.10
2022-09-14T00:52:03.800Z,20.20
2022-09-14T00:52:39.286Z,20.10
2022-09-14T00:53:11.324Z,20.10
2022-09-14T00:53:43.749Z,20.10
2022-09-14T00:54:16.724Z,20.10
2022-09-14T00:54:51.191Z,20.10
2022-09-14T00:55:23.455Z,20.20
2022-09-14T00:55:56.457Z,20.10
2022-09-14T00:56:28.365Z,20.20
2022-09-14T00:57:02.811Z,20.10
2022-09-14T00:57:39.477Z,20.10
2022-09-14T00:58:11.442Z,20.20
2022-09-14T00:58:45.941Z,20.20
2022-09-14T00:59:20.865Z,20.10
2022-09-14T00:59:54.237Z,20.20
2022-09-14T01:00:28.478Z,20.10
2022-09-14T01:01:02.391Z,20.20
2022-09-14T01:01:34.493Z,20.20
2022-09-14T01:02:08.940Z,20.20
2022-09-14T01:02:41.794Z,20.20
2022-09-14T01:03:13.633Z,20.20
2022-09-14T01:03:45.704Z,20.20
2022-09-14T01:04:18.539Z,20.20
2022-09-14T01:04:51.615Z,20.20
2022-09-14T01:05:30.946Z,20.20
2022-09-14T01:06:15.501Z,20.30
2022-09-14T01:06:55.922Z,20.20
2022-09-14T01:07:40.208Z,20.20
2022-09-14T01:08:38.520Z,20.20
2022-09-14T01:09:19.072Z,20.20
2022-09-14T01:10:01.018Z,20.10
2022-09-14T01:10:45.742Z,20.10
2022-09-14T01:11:31.447Z,20.10
2022-09-14T01:12:14.272Z,20.10
2022-09-14T01:12:57.998Z,20.10
2022-09-14T01:13:38.403Z,20.10
2022-09-14T01:14:15.800Z,20.00
2022-09-14T01:14:55.978Z,20.00
2022-09-14T01:15:36.360Z,20.00
2022-09-14T01:16:15.387Z,20.00
2022-09-14T01:17:06.364Z,19.90
2022-09-14T01:17:45.591Z,19.90
2022-09-14T01:18:22.847Z,19.90
2022-09-14T01:18:58.569Z,19.90
2022-09-14T01:19:51.262Z,19.90
2022-09-14T01:20:28.220Z,19.90
2022-09-14T01:21:06.139Z,19.90
2022-09-14T01:21:41.953Z,19.90
2022-09-14T01:22:21.003Z,19.90
2022-09-14T01:23:03.737Z,19.90
2022-09-14T01:23:42.604Z,19.90
2022-09-14T01:24:25.437Z,19.90
2022-09-14T01:25:11.511Z,19.90
2022-09-14T01:26:01.256Z,19.90
2022-09-14T01:27:11.361Z,20.00
2022-09-14T01:27:45.360Z,19.90
2022-09-14T01:28:23.706Z,19.90
2022-09-14T01:28:58.728Z,19.90
2022-09-14T01:29:36.041Z,19.90
2022-09-14T01:30:10.997Z,19.90
2022-09-14T01:30:44.517Z,19.90
2022-09-14T01:31:22.318Z,19.90
2022-09-14T01:31:59.978Z,19.90
2022-09-14T01:32:36.190Z,19.90
2022-09-14T01:33:15.677Z,19.90
2022-09-14T01:33:54.851Z,20.00
2022-09-14T01:34:32.387Z,19.90
2022-09-14T01:35:15.691Z,19.90
2022-09-14T01:35:53.922Z,19.90
2022-09-14T01:36:29.758Z,19.90
2022-09-14T01:37:06.192Z,20.00
2022-09-14T01:37:42.688Z,20.00
2022-09-14T01:38:21.513Z,20.00
2022-09-14T01:38:54.945Z,20.00
2022-09-14T01:39:29.269Z,20.00
2022-09-14T01:40:08.065Z,20.00
2022-09-14T01:40:44.177Z,20.00
2022-09-14T01:41:20.497Z,20.00
2022-09-14T01:41:54.543Z,20.00
2022-09-14T01:42:28.724Z,20.10
2022-09-14T01:43:06.686Z,20.00
2022-09-14T01:43:41.821Z,20.00
2022-09-14T01:44:17.574Z,20.00
2022-09-14T01:44:54.113Z,20.00
2022-09-14T01:45:29.729Z,20.00
2022-09-14T01:46:08.066Z,20.00
2022-09-14T01:46:43.206Z,20.00
2022-09-14T01:47:20.445Z,20.00
2022-09-14T01:47:54.646Z,20.00
2022-09-14T01:48:37.779Z,20.00
2022-09-14T01:49:15.083Z,20.10
2022-09-14T01:49:52.406Z,20.00
2022-09-14T01:50:31.158Z,20.00
2022-09-14T01:51:09.299Z,19.90
2022-09-14T01:51:45.643Z,20.00
2022-09-14T01:52:21.652Z,20.00
2022-09-14T01:52:59.201Z,20.00
2022-09-14T01:53:35.144Z,20.00
2022-09-14T01:54:11.424Z,19.90
2022-09-14T01:54:48.766Z,19.90
2022-09-14T01:55:25.806Z,19.90
2022-09-14T01:56:03.057Z,19.90
2022-09-14T01:56:39.728Z,19.90
2022-09-14T01:57:16.911Z,19.90
2022-09-14T01:57:53.106Z,19.90
2022-09-14T01:58:34.196Z,19.90
2022-09-14T01:59:09.690Z,19.90
2022-09-14T01:59:44.265Z,19.90
2022-09-14T02:00:19.048Z,19.90
2022-09-14T02:00:53.866Z,20.00
2022-09-14T02:01:33.172Z,19.90
2022-09-14T02:02:11.857Z,20.00
2022-09-14T02:02:48.307Z,19.90
2022-09-14T02:03:24.130Z,19.90
2022-09-14T02:04:01.076Z,19.90
2022-09-14T02:04:41.221Z,19.80
2022-09-14T02:05:18.369Z,19.80
2022-09-14T02:05:58.231Z,19.80
2022-09-14T02:06:35.966Z,19.80
2022-09-14T02:07:08.069Z,19.80
2022-09-14T02:07:41.136Z,19.80
2022-09-14T02:08:13.123Z,19.80
2022-09-14T02:08:45.034Z,19.80
2022-09-14T02:09:26.349Z,19.80
2022-09-14T02:09:59.058Z,19.80
2022-09-14T02:10:31.301Z,19.80
2022-09-14T02:11:04.105Z,19.80
2022-09-14T02:11:36.183Z,19.80
2022-09-14T02:12:09.754Z,19.80
2022-09-14T02:12:42.136Z,19.80
2022-09-14T02:13:14.930Z,19.80
2022-09-14T02:13:48.988Z,19.80
2022-09-14T02:14:21.451Z,19.80
2022-09-14T02:14:55.468Z,19.80
2022-09-14T02:15:27.830Z,19.80
2022-09-14T02:15:59.679Z,19.80
2022-09-14T02:16:32.711Z,19.80
2022-09-14T02:17:05.017Z,19.80
2022-09-14T02:17:37.461Z,19.80
2022-09-14T02:18:10.226Z,19.80
2022-09-14T02:18:43.442Z,19.80
2022-09-14T02:19:15.314Z,19.80
2022-09-14T02:19:53.213Z,19.80
2022-09-14T02:20:31.125Z,19.80
2022-09-14T02:21:07.855Z,19.90
2022-09-14T02:21:40.923Z,19.80
2022-09-14T02:22:13.256Z,19.80
2022-09-14T02:22:45.112Z,19.80
2022-09-14T02:23:19.514Z,19.80
2022-09-14T02:23:51.948Z,19.80
2022-09-14T02:24:23.808Z,19.80
2022-09-14T02:24:57.109Z,19.80
2022-09-14T02:25:28.948Z,19.80
2022-09-14T02:26:00.961Z,19.80
2022-09-14T02:26:33.842Z,19.80
2022-09-14T02:27:07.172Z,19.90
2022-09-14T02:27:39.101Z,19.90
2022-09-14T02:28:12.122Z,19.80
2022-09-14T02:28:44.024Z,19.90
2022-09-14T02:29:17.468Z,19.90
2022-09-14T02:29:50.508Z,19.80
2022-09-14T02:30:22.762Z,19.80
2022-09-14T02:31:04.258Z,19.90
2022-09-14T02:31:47.854Z,19.90
2022-09-14T02:32:26.972Z,19.80
2022-09-14T02:33:08.729Z,19.80
2022-09-14T02:33:48.216Z,19.80
2022-09-14T02:34:29.866Z,19.80
2022-09-14T02:35:11.668Z,19.80
2022-09-14T02:35:48.593Z,19.80
2022-09-14T02:36:25.578Z,19.70
2022-09-14T02:37:06.466Z,19.80
2022-09-14T02:37:48.420Z,19.70
2022-09-14T02:38:27.977Z,19.70
2022-09-14T02:39:07.149Z,19.70
2022-09-14T02:39:47.116Z,19.70
2022-09-14T02:40:29.704Z,19.70
2022-09-14T02:41:07.381Z,19.60
2022-09-14T02:41:48.859Z,19.60
2022-09-14T02:42:28.377Z,19.60
2022-09-14T02:43:08.569Z,19.60
2022-09-14T02:43:47.123Z,19.60
2022-09-14T02:44:28.599Z,19.60
2022-09-14T02:45:09.475Z,19.60
2022-09-14T02:45:50.419Z,19.60
2022-09-14T02:46:29.028Z,19.60
2022-09-14T02:47:05.594Z,19.60
2022-09-14T02:47:50.837Z,19.60
2022-09-14T02:48:30.309Z,19.70
2022-09-14T02:49:07.888Z,19.60
2022-09-14T02:49:45.608Z,19.60
2022-09-14T02:50:24.033Z,19.50
2022-09-14T02:51:03.241Z,19.60
2022-09-14T02:51:42.792Z,19.50
2022-09-14T02:52:18.377Z,19.50
2022-09-14T02:52:58.746Z,19.50
2022-09-14T02:53:36.983Z,19.50
2022-09-14T02:54:14.654Z,19.50
2022-09-14T02:54:54.315Z,19.60
2022-09-14T02:55:30.844Z,19.60
2022-09-14T02:56:05.143Z,19.60
2022-09-14T02:56:38.615Z,19.50
2022-09-14T02:57:10.410Z,19.50
2022-09-14T02:58:01.954Z,19.50
2022-09-14T02:58:36.941Z,19.60
2022-09-14T02:59:08.722Z,19.60
2022-09-14T02:59:41.855Z,19.60
2022-09-14T03:00:14.294Z,19.60
2022-09-14T03:00:49.353Z,19.60
2022-09-14T03:01:22.980Z,19.60
2022-09-14T03:01:55.737Z,19.60
2022-09-14T03:02:28.565Z,19.70
2022-09-14T03:03:00.369Z,19.80
2022-09-14T03:03:35.648Z,19.70
2022-09-14T03:04:08.746Z,19.70
2022-09-14T03:04:40.554Z,19.70
2022-09-14T03:05:12.764Z,19.70
2022-09-14T03:05:46.254Z,19.70
2022-09-14T03:06:18.126Z,19.70
2022-09-14T03:06:49.967Z,19.80
2022-09-14T03:07:22.730Z,19.80
2022-09-14T03:07:54.546Z,19.80
2022-09-14T03:08:28.085Z,19.80
2022-09-14T03:09:00.865Z,19.80
2022-09-14T03:09:32.735Z,19.80
2022-09-14T03:10:05.264Z,19.80
2022-09-14T03:10:38.799Z,19.80
2022-09-14T03:11:11.081Z,19.80
2022-09-14T03:11:42.886Z,19.80
2022-09-14T03:12:15.708Z,19.90
2022-09-14T03:12:47.866Z,19.80
2022-09-14T03:13:19.753Z,19.90
2022-09-14T03:13:51.545Z,19.80
2022-09-14T03:14:24.357Z,19.90
2022-09-14T03:14:57.453Z,19.80
2022-09-14T03:15:29.524Z,19.90
2022-09-14T03:16:05.995Z,19.80
2022-09-14T03:16:38.408Z,19.90
2022-09-14T03:17:10.225Z,19.80
2022-09-14T03:17:47.284Z,19.80
2022-09-14T03:18:19.530Z,19.90
2022-09-14T03:18:51.321Z,19.80
2022-09-14T03:19:24.089Z,19.80
2022-09-14T03:19:55.865Z,19.80
2022-09-14T03:20:29.562Z,19.90
2022-09-14T03:21:06.859Z,19.80
2022-09-14T03:21:39.722Z,19.90
2022-09-14T03:22:11.499Z,19.90
2022-09-14T03:22:44.310Z,19.80
2022-09-14T03:23:16.097Z,19.90
2022-09-14T03:23:49.136Z,19.90
2022-09-14T03:24:21.041Z,19.90
2022-09-14T03:24:53.780Z,19.90
2022-09-14T03:25:25.884Z,19.90
2022-09-14T03:25:57.694Z,19.90
2022-09-14T03:26:30.522Z,19.90
2022-09-14T03:27:02.312Z,19.90
2022-09-14T03:27:34.136Z,20.00
2022-09-14T03:28:07.931Z,19.90
2022-09-14T03:28:40.101Z,19.90
2022-09-14T03:29:11.893Z,19.90
2022-09-14T03:29:44.652Z,19.90
2022-09-14T03:30:18.912Z,19.90
2022-09-14T03:30:50.689Z,19.90
2022-09-14T03:31:24.023Z,19.90
2022-09-14T03:31:55.909Z,19.90
2022-09-14T03:32:27.791Z,19.80
2022-09-14T03:33:00.834Z,19.80
2022-09-14T03:33:33.066Z,19.80
2022-09-14T03:34:04.851Z,19.80
2022-09-14T03:34:37.606Z,19.80
2022-09-14T03:35:09.616Z,19.80
2022-09-14T03:35:41.399Z,19.70
2022-09-14T03:36:16.793Z,19.70
2022-09-14T03:36:48.599Z,19.70
2022-09-14T03:37:20.383Z,19.70
2022-09-14T03:37:53.255Z,19.70
2022-09-14T03:38:27.891Z,19.70
2022-09-14T03:39:01.779Z,19.70
2022-09-14T03:39:34.521Z,19.70
2022-09-14T03:40:08.378Z,19.60
2022-09-14T03:40:40.155Z,19.60
2022-09-14T03:41:13.769Z,19.60
2022-09-14T03:41:45.587Z,19.60
2022-09-14T03:42:17.522Z,19.60
2022-09-14T03:42:52.317Z,19.60
2022-09-14T03:43:24.158Z,19.60
2022-09-14T03:43:56.029Z,19.60
2022-09-14T03:44:28.750Z,19.60
2022-09-14T03:45:00.532Z,19.70
2022-09-14T03:45:34.645Z,19.70
2022-09-14T03:46:07.236Z,19.70
2022-09-14T03:46:39.280Z,19.70
2022-09-14T03:47:12.066Z,19.70
2022-09-14T03:47:44.445Z,19.70
2022-09-14T03:48:16.233Z,19.70
2022-09-14T03:48:49.274Z,19.70
2022-09-14T03:49:21.111Z,19.70
2022-09-14T03:49:53.158Z,19.70
2022-09-14T03:50:25.912Z,19.70
2022-09-14T03:51:00.572Z,19.70
2022-09-14T03:51:33.949Z,19.70
2022-09-14T03:52:06.788Z,19.70
2022-09-14T03:52:39.059Z,19.70
2022-09-14T03:53:10.818Z,19.70
2022-09-14T03:53:44.772Z,19.70
2022-09-14T03:54:17.670Z,19.70
2022-09-14T03:54:49.446Z,19.70
2022-09-14T03:55:21.219Z,19.70
2022-09-14T03:55:53.970Z,19.70
2022-09-14T03:56:26.010Z,19.80
2022-09-14T03:56:57.817Z,19.80
2022-09-14T03:57:30.600Z,19.80
2022-09-14T03:58:03.022Z,19.70
2022-09-14T03:58:34.885Z,19.80
2022-09-14T03:59:09.952Z,19.70
2022-09-14T03:59:43.801Z,19.80
2022-09-14T04:00:16.155Z,19.80
2022-09-14T04:00:50.563Z,19.80
2022-09-14T04:01:23.448Z,19.80
2022-09-14T04:01:55.408Z,19.70
2022-09-14T04:02:29.862Z,19.80
2022-09-14T04:03:01.810Z,19.70
2022-09-14T04:03:33.973Z,19.80
2022-09-14T04:04:06.750Z,19.80
2022-09-14T04:04:38.728Z,19.80
2022-09-14T04:05:11.989Z,19.80
2022-09-14T04:05:45.502Z,19.80
2022-09-14T04:06:18.680Z,19.80
2022-09-14T04:06:50.442Z,19.80
2022-09-14T04:07:23.240Z,19.80
2022-09-14T04:07:55.006Z,19.80
2022-09-14T04:08:27.114Z,19.80
2022-09-14T04:08:59.991Z,19.90
2022-09-14T04:09:31.777Z,19.90
2022-09-14T04:10:05.605Z,19.90
2022-09-14T04:10:40.630Z,19.90
2022-09-14T04:11:15.072Z,19.90
2022-09-14T04:11:47.442Z,19.90
2022-09-14T04:12:20.185Z,19.90
2022-09-14T04:12:51.952Z,20.00
2022-09-14T04:13:24.079Z,19.90
2022-09-14T04:13:56.805Z,19.90
2022-09-14T04:14:28.698Z,19.90
2022-09-14T04:15:00.461Z,19.90
2022-09-14T04:15:33.205Z,19.90
2022-09-14T04:16:06.662Z,19.90
2022-09-14T04:16:38.868Z,19.90
2022-09-14T04:17:11.631Z,19.90
2022-09-14T04:17:43.404Z,19.90
2022-09-14T04:18:15.238Z,19.90
2022-09-14T04:18:48.618Z,19.90
2022-09-14T04:19:20.439Z,19.90
2022-09-14T04:19:52.238Z,19.90
2022-09-14T04:20:24.989Z,19.90
2022-09-14T04:20:58.480Z,19.90
2022-09-14T04:21:30.459Z,20.00
2022-09-14T04:22:02.243Z,20.00
2022-09-14T04:22:35.064Z,20.00
2022-09-14T04:23:06.813Z,20.00
2022-09-14T04:24:02.999Z,20.00
2022-09-14T04:24:31.581Z,20.00
2022-09-14T04:25:03.630Z,20.00
2022-09-14T04:25:35.408Z,19.90
2022-09-14T04:26:12.181Z,19.90
2022-09-14T04:26:45.568Z,20.00
2022-09-14T04:27:17.405Z,19.80
2022-09-14T04:28:16.750Z,19.80
2022-09-14T04:28:43.706Z,19.80
2022-09-14T04:29:16.674Z,19.70
2022-09-14T04:29:49.624Z,19.70
2022-09-14T04:30:21.608Z,19.70
2022-09-14T04:31:02.271Z,19.70
2022-09-14T04:31:35.889Z,19.70
2022-09-14T04:32:07.762Z,19.70
2022-09-14T04:32:40.875Z,19.70
2022-09-14T04:33:12.633Z,19.70
2022-09-14T04:33:44.788Z,19.60
2022-09-14T04:34:17.527Z,19.70
2022-09-14T04:34:49.366Z,19.60
2022-09-14T04:35:21.129Z,19.70
2022-09-14T04:35:58.603Z,19.60
2022-09-14T04:36:31.196Z,19.60
2022-09-14T04:37:04.334Z,19.60
2022-09-14T04:37:36.161Z,19.70
2022-09-14T04:38:07.947Z,19.70
2022-09-14T04:38:41.747Z,19.70
2022-09-14T04:39:13.819Z,19.70
2022-09-14T04:39:45.723Z,19.70
2022-09-14T04:40:18.561Z,19.70
2022-09-14T04:40:50.351Z,19.70
2022-09-14T04:41:22.857Z,19.80
2022-09-14T04:41:55.612Z,19.70
2022-09-14T04:42:27.374Z,19.70
2022-09-14T04:42:59.125Z,19.80
2022-09-14T04:43:31.499Z,19.70
2022-09-14T04:44:04.281Z,19.70
2022-09-14T04:44:36.144Z,19.70
2022-09-14T04:45:08.707Z,19.70
2022-09-14T04:45:41.519Z,19.70
2022-09-14T04:46:15.585Z,19.80
2022-09-14T04:46:48.942Z,19.70
2022-09-14T04:47:21.677Z,19.70
2022-09-14T04:47:54.375Z,19.70
2022-09-14T04:48:26.177Z,19.70
2022-09-14T04:48:59.355Z,19.70
2022-09-14T04:49:31.115Z,19.70
2022-09-14T04:50:03.022Z,19.70
2022-09-14T04:50:35.763Z,19.70
2022-09-14T04:51:09.249Z,19.70
2022-09-14T04:51:41.005Z,19.70
2022-09-14T04:52:13.763Z,19.70
2022-09-14T04:52:45.540Z,19.80
2022-09-14T04:53:17.308Z,19.70
2022-09-14T04:53:51.607Z,19.80
2022-09-14T04:54:23.413Z,19.80
2022-09-14T04:54:55.694Z,19.80
2022-09-14T04:55:28.471Z,19.80
2022-09-14T04:56:00.737Z,19.80
2022-09-14T04:56:35.625Z,19.80
2022-09-14T04:57:07.406Z,19.80
2022-09-14T04:57:39.188Z,19.90
2022-09-14T04:58:10.991Z,19.80
2022-09-14T04:58:50.710Z,19.80
2022-09-14T04:59:23.341Z,19.90
2022-09-14T04:59:56.124Z,19.90
2022-09-14T05:00:27.993Z,19.90
2022-09-14T05:01:01.990Z,19.90
2022-09-14T05:01:36.271Z,19.90
2022-09-14T05:02:09.490Z,19.90
2022-09-14T05:02:41.449Z,19.90
2022-09-14T05:03:14.292Z,19.90
2022-09-14T05:03:46.183Z,19.90
2022-09-14T05:04:18.185Z,19.90
2022-09-14T05:04:50.994Z,20.00
2022-09-14T05:05:22.770Z,19.90
2022-09-14T05:05:54.525Z,19.90
2022-09-14T05:06:30.261Z,19.90
2022-09-14T05:07:02.035Z,19.90
2022-09-14T05:07:33.841Z,19.90
2022-09-14T05:08:06.586Z,19.90
2022-09-14T05:08:39.121Z,19.90
2022-09-14T05:09:13.398Z,19.80
2022-09-14T05:09:46.169Z,20.00
2022-09-14T05:10:19.257Z,20.00
2022-09-14T05:10:54.833Z,19.90
2022-09-14T05:11:29.353Z,19.90
2022-09-14T05:12:01.409Z,19.90
2022-09-14T05:12:33.206Z,19.90
2022-09-14T05:13:06.009Z,19.90
2022-09-14T05:13:37.903Z,20.00
2022-09-14T05:14:11.930Z,20.00
2022-09-14T05:14:44.673Z,20.00
2022-09-14T05:15:16.689Z,20.00
2022-09-14T05:15:48.596Z,20.00
2022-09-14T05:16:22.261Z,20.00
2022-09-14T05:16:56.410Z,20.00
2022-09-14T05:17:29.523Z,20.00
2022-09-14T05:18:02.810Z,20.00
2022-09-14T05:18:35.588Z,20.00
2022-09-14T05:19:10.535Z,20.00
2022-09-14T05:19:43.275Z,20.00
2022-09-14T05:20:15.217Z,20.00
2022-09-14T05:20:46.993Z,20.00
2022-09-14T05:21:20.574Z,20.00
2022-09-14T05:21:53.330Z,20.00
2022-09-14T05:22:25.110Z,20.10
2022-09-14T05:22:56.859Z,20.10
2022-09-14T05:23:29.596Z,20.10
2022-09-14T05:24:04.045Z,20.10
2022-09-14T05:24:36.784Z,20.10
2022-09-14T05:25:09.404Z,20.10
2022-09-14T05:25:41.265Z,20.10
2022-09-14T05:26:14.927Z,20.10
2022-09-14T05:26:47.436Z,20.10
2022-09-14T05:27:19.197Z,20.10
2022-09-14T05:27:51.929Z,20.10
2022-09-14T05:28:23.902Z,20.10
2022-09-14T05:28:57.901Z,20.10
2022-09-14T05:29:31.799Z,20.10
2022-09-14T05:30:04.070Z,20.10
2022-09-14T05:30:39.525Z,20.10
2022-09-14T05:31:12.976Z,20.10
2022-09-14T05:31:45.588Z,20.10
2022-09-14T05:32:17.410Z,20.10
2022-09-14T05:32:54.371Z,20.10
2022-09-14T05:33:29.246Z,20.10
2022-09-14T05:34:01.060Z,20.10
2022-09-14T05:34:33.905Z,20.10
2022-09-14T05:35:06.383Z,20.10
2022-09-14T05:35:38.184Z,20.10
2022-09-14T05:36:10.252Z,20.10
2022-09-14T05:36:43.044Z,20.10
2022-09-14T05:37:14.829Z,20.10
2022-09-14T05:37:46.661Z,20.20
2022-09-14T05:38:19.703Z,20.20
2022-09-14T05:38:52.249Z,20.20
2022-09-14T05:39:24.918Z,20.20
2022-09-14T05:39:57.712Z,20.20
2022-09-14T05:40:29.539Z,20.20
2022-09-14T05:41:01.643Z,20.20
2022-09-14T05:41:34.394Z,20.10
2022-09-14T05:42:06.292Z,20.20
2022-09-14T05:42:38.090Z,20.20
2022-09-14T05:43:10.973Z,20.20
2022-09-14T05:43:43.609Z,20.20
2022-09-14T05:44:16.361Z,20.20
2022-09-14T05:44:48.277Z,20.20
2022-09-14T05:45:20.033Z,20.30
2022-09-14T05:45:52.985Z,20.20
2022-09-14T05:46:24.871Z,20.20
2022-09-14T05:46:57.658Z,20.20
2022-09-14T05:47:30.564Z,20.30
2022-09-14T05:48:04.799Z,20.30
2022-09-14T05:48:38.745Z,20.30
2022-09-14T05:49:10.514Z,20.30
2022-09-14T05:49:42.347Z,20.30
2022-09-14T05:50:15.608Z,20.30
2022-09-14T05:50:47.704Z,20.30
2022-09-14T05:51:22.166Z,20.30
2022-09-14T05:51:54.903Z,20.40
2022-09-14T05:52:29.453Z,20.40
2022-09-14T05:53:01.235Z,20.40
2022-09-14T05:53:34.111Z,20.40
2022-09-14T05:54:11.346Z,20.40
2022-09-14T05:54:43.162Z,20.40
2022-09-14T05:55:15.087Z,20.40
2022-09-14T05:55:47.840Z,20.40
2022-09-14T05:56:21.003Z,20.50
2022-09-14T05:56:52.835Z,20.40
2022-09-14T05:57:25.754Z,20.50
2022-09-14T05:57:57.518Z,20.50
2022-09-14T05:58:29.956Z,20.50
2022-09-14T05:59:02.729Z,20.50
2022-09-14T05:59:34.486Z,20.50
2022-09-14T06:00:07.943Z,20.50
2022-09-14T06:00:40.801Z,20.60
2022-09-14T06:01:14.682Z,20.60
2022-09-14T06:01:47.427Z,20.50
2022-09-14T06:02:19.354Z,20.60
2022-09-14T06:02:52.826Z,20.60
2022-09-14T06:03:27.378Z,20.60
2022-09-14T06:04:02.128Z,20.60
2022-09-14T06:04:34.005Z,20.60
2022-09-14T06:05:07.433Z,20.60
2022-09-14T06:05:39.274Z,20.60
2022-09-14T06:06:12.634Z,20.60
2022-09-14T06:07:01.492Z,20.60
2022-09-14T06:07:37.631Z,20.60
2022-09-14T06:08:09.382Z,20.60
2022-09-14T06:08:42.780Z,20.60
2022-09-14T06:09:16.001Z,20.60
2022-09-14T06:09:47.751Z,20.60
2022-09-14T06:10:21.664Z,20.60
2022-09-14T06:10:53.413Z,20.60
2022-09-14T06:11:28.656Z,20.60
2022-09-14T06:12:00.530Z,20.60
2022-09-14T06:12:32.368Z,20.70
2022-09-14T06:13:05.219Z,20.60
2022-09-14T06:13:37.394Z,20.60
2022-09-14T06:14:10.114Z,20.70
2022-09-14T06:14:41.909Z,20.70
2022-09-14T06:15:13.854Z,20.70
2022-09-14T06:15:46.573Z,20.70
2022-09-14T06:16:20.206Z,20.70
2022-09-14T06:16:52.023Z,20.70
2022-09-14T06:17:25.137Z,20.70
2022-09-14T06:17:57.474Z,20.70
2022-09-14T06:18:31.954Z,20.70
2022-09-14T06:19:05.310Z,20.90
2022-09-14T06:19:37.097Z,20.70
2022-09-14T06:20:09.365Z,20.70
2022-09-14T06:20:50.872Z,20.70
2022-09-14T06:21:23.971Z,20.70
2022-09-14T06:21:55.849Z,20.70
2022-09-14T06:22:28.547Z,20.80
2022-09-14T06:23:00.332Z,20.70
2022-09-14T06:23:32.973Z,20.70
2022-09-14T06:24:05.864Z,20.90
2022-09-14T06:24:37.637Z,20.80
2022-09-14T06:25:11.354Z,20.80
2022-09-14T06:25:44.395Z,20.80
2022-09-14T06:26:17.007Z,20.80
2022-09-14T06:26:49.768Z,20.80
2022-09-14T06:27:21.569Z,20.70
2022-09-14T06:27:53.951Z,20.80
2022-09-14T06:28:27.684Z,20.80
2022-09-14T06:28:59.491Z,20.70
2022-09-14T06:29:32.234Z,20.70
2022-09-14T06:30:05.093Z,20.70
2022-09-14T06:30:36.862Z,20.70
2022-09-14T06:31:12.036Z,20.70
2022-09-14T06:31:43.817Z,20.70
2022-09-14T06:32:15.586Z,20.70
2022-09-14T06:32:48.336Z,20.70
2022-09-14T06:33:20.553Z,20.70
2022-09-14T06:33:53.885Z,20.70
2022-09-14T06:34:26.670Z,20.70
2022-09-14T06:34:58.478Z,20.70
2022-09-14T06:35:30.237Z,20.70
2022-09-14T06:36:05.145Z,20.60
2022-09-14T06:36:36.978Z,20.70
2022-09-14T06:37:09.699Z,20.70
2022-09-14T06:37:41.493Z,20.70
2022-09-14T06:38:14.783Z,20.70
2022-09-14T06:38:48.839Z,20.70
2022-09-14T06:39:20.957Z,20.70
2022-09-14T06:39:52.787Z,20.80
2022-09-14T06:40:27.071Z,20.70
2022-09-14T06:41:00.667Z,20.80
2022-09-14T06:41:32.943Z,20.80
2022-09-14T06:42:06.497Z,20.80
2022-09-14T06:42:38.249Z,20.80
2022-09-14T06:43:10.013Z,20.80
2022-09-14T06:43:43.685Z,20.80
2022-09-14T06:44:15.432Z,20.80
2022-09-14T06:44:47.432Z,20.80
2022-09-14T06:45:20.200Z,21.00
2022-09-14T06:45:56.860Z,20.90
2022-09-14T06:46:30.369Z,20.90
2022-09-14T06:47:03.111Z,20.90
2022-09-14T06:47:34.942Z,20.90
2022-09-14T06:48:06.705Z,20.90
2022-09-14T06:48:41.079Z,20.90
2022-09-14T06:49:20.401Z,20.90
2022-09-14T06:49:53.438Z,20.90
2022-09-14T06:50:25.793Z,21.00
2022-09-14T06:50:57.893Z,20.90
2022-09-14T06:51:32.673Z,20.90
2022-09-14T06:52:04.553Z,21.00
2022-09-14T06:52:36.397Z,20.90
2022-09-14T06:53:09.155Z,20.90
2022-09-14T06:53:40.963Z,21.00
2022-09-14T06:54:15.163Z,20.90
2022-09-14T06:54:47.028Z,21.00
2022-09-14T06:55:18.929Z,21.00
2022-09-14T06:55:52.101Z,21.00
2022-09-14T06:56:23.926Z,21.00
2022-09-14T06:56:55.721Z,21.00
2022-09-14T06:57:28.450Z,20.90
2022-09-14T06:58:00.235Z,21.00
2022-09-14T06:58:32.840Z,21.00
2022-09-14T06:59:06.350Z,21.00
2022-09-14T06:59:38.142Z,20.90
2022-09-14T07:00:11.084Z,20.90
2022-09-14T07:00:42.982Z,20.90
2022-09-14T07:01:17.282Z,20.90
2022-09-14T07:01:49.739Z,20.80
2022-09-14T07:02:23.025Z,20.80
2022-09-14T07:02:55.727Z,20.80
2022-09-14T07:03:27.639Z,20.70
2022-09-14T07:04:01.578Z,20.70
2022-09-14T07:04:36.782Z,20.70
2022-09-14T07:05:10.220Z,20.70
2022-09-14T07:05:42.059Z,20.70
2022-09-14T07:06:15.164Z,20.70
2022-09-14T07:06:49.910Z,20.70
2022-09-14T07:07:21.741Z,20.70
2022-09-14T07:07:53.726Z,20.70
2022-09-14T07:08:29.291Z,20.70
2022-09-14T07:09:04.851Z,20.70
2022-09-14T07:09:37.832Z,20.70
2022-09-14T07:10:11.570Z,20.70
2022-09-14T07:10:44.065Z,20.70
2022-09-14T07:11:19.125Z,20.70
2022-09-14T07:11:50.916Z,20.70
2022-09-14T07:12:22.702Z,20.70
2022-09-14T07:12:55.704Z,20.70
2022-09-14T07:13:28.173Z,20.70
2022-09-14T07:14:00.366Z,20.70
2022-09-14T07:14:33.125Z,20.70
2022-09-14T07:15:06.570Z,20.70
2022-09-14T07:15:38.381Z,20.70
2022-09-14T07:16:11.414Z,20.70
2022-09-14T07:16:43.195Z,20.70
2022-09-14T07:17:16.607Z,20.70
2022-09-14T07:17:49.334Z,20.70
2022-09-14T07:18:22.160Z,20.70
2022-09-14T07:18:54.249Z,20.70
2022-09-14T07:19:27.173Z,20.70
2022-09-14T07:20:01.473Z,20.70